You are not logged in, Click here to log in
ICAO: LTFH Country: 土耳其薩姆松
Latitude: 41.2578 Longitude: 36.5552
Total Arrivals: 1 Total Departures: 1
Latest Arrival: 8Q176 (LTBA-LTFH)Lun. Wang Latest Departure: 8Q177 (LTFH-LTBA)Lun. Wang
Scenery:
METAR : LTFH 261150Z 04006KT 010V110 9999 SCT036 BKN100 25/12 Q1017 NOSIG

薩姆松恰爾尚巴機場